Terminal Aerodrome Forecast
Issued by NWS

Current Version | Previous Version | Text Only | Print | Product List | Glossary Off
Versions: 1 2 3 4 5 6 7 8 9 10 11 12 13 14 15 16 17 18

000
FTUS41 KILN 192334
TAFLCK
TAF
KLCK 192334Z 2000/2024 21011KT P6SM SCT060 BKN070
      TEMPO 2001/2003 BKN050
     FM200600 19010G18KT P6SM BKN025 WS020/22045KT
     FM201500 20014G22KT P6SM BKN035
     FM201700 20018G30KT P6SM BKN040=

USA.gov is the U.S. government's official web portal to all federal, state and local government web resources and services.